South Fork, Pennsylvania
Current Conditions -  °F | °C
As of 11:38 AM on Wednesday 26 Nov 2014 (Local Time) from KJST Reporting Station
Moderate Snow Moderate Snow  
Wind Chill: 26°   Ceiling: 300
Heat Index: 31°   Visibility: 0.5mi
Dew Point: 29°   Wind: 5mph
Humidity: 92%   Direction: 50°NE
Pressure: 29.98"   Gusts: NA
Location:  40.37°N, 78.79°W
Report Text: KJST 261638Z AUTO 05004KT 1/2SM SN FZFG BKN003 OVC015 M01/M02 A2998 RMK AO2 P0003 T10061017
Loading
Personal Weather Stations






























Interactive Weather Map New forecast layout! Learn more

10-Day Weather Forecast

Advertisements
Track Severe Weather on mobile